createdAt,value
2023-10-20T00:00:43.134Z,30.50
2023-10-20T00:03:10.595Z,36.55
2023-10-20T00:05:37.948Z,31.60
2023-10-20T00:08:05.209Z,37.83
2023-10-20T00:10:36.559Z,33.58
2023-10-20T00:13:06.857Z,39.80
2023-10-20T00:15:35.065Z,43.65
2023-10-20T00:18:02.868Z,40.72
2023-10-20T00:20:30.260Z,32.92
2023-10-20T00:22:57.521Z,40.55
2023-10-20T00:25:24.562Z,37.95
2023-10-20T00:27:51.416Z,35.53
2023-10-20T00:30:18.297Z,35.50
2023-10-20T00:32:46.611Z,34.75
2023-10-20T00:35:16.750Z,43.85
2023-10-20T00:37:43.733Z,40.28
2023-10-20T00:40:11.924Z,40.42
2023-10-20T01:22:01.090Z,41.70
2023-10-20T01:24:28.124Z,46.55
2023-10-20T01:26:54.815Z,42.00
2023-10-20T01:29:21.744Z,45.55
2023-10-20T01:31:48.580Z,42.38
2023-10-20T01:34:15.490Z,42.38
2023-10-20T01:36:42.656Z,53.03
2023-10-20T01:39:09.765Z,44.28
2023-10-20T01:41:37.078Z,52.13
2023-10-20T01:44:04.008Z,41.28
2023-10-20T01:46:30.795Z,46.50
2023-10-20T01:48:57.505Z,44.72
2023-10-20T01:51:24.195Z,46.25
2023-10-20T01:53:50.890Z,43.72
2023-10-20T01:56:17.575Z,40.22
2023-10-20T01:58:44.543Z,36.80
2023-10-20T02:01:11.518Z,42.55
2023-10-20T02:03:38.553Z,40.83
2023-10-20T02:06:06.050Z,42.53
2023-10-20T02:08:33.573Z,46.40
2023-10-20T02:11:01.222Z,45.08
2023-10-20T02:13:28.374Z,44.03
2023-10-20T02:15:55.146Z,39.05
2023-10-20T02:18:21.948Z,37.90
2023-10-20T02:20:59.290Z,44.85
2023-10-20T02:23:26.475Z,40.55
2023-10-20T02:26:06.992Z,40.90
2023-10-20T02:28:34.581Z,43.50
2023-10-20T02:31:02.372Z,38.90
2023-10-20T02:33:29.396Z,40.22
2023-10-20T02:35:56.732Z,35.45
2023-10-20T02:38:23.607Z,46.20
2023-10-20T02:40:54.679Z,46.33
2023-10-20T02:43:22.479Z,46.00
2023-10-20T02:45:53.794Z,41.30
2023-10-20T02:48:21.455Z,41.35
2023-10-20T02:50:48.388Z,37.47
2023-10-20T02:53:15.675Z,40.40
2023-10-20T02:55:43.137Z,39.17
2023-10-20T02:58:13.604Z,38.00
2023-10-20T03:00:45.169Z,45.85
2023-10-20T03:03:13.520Z,45.58
2023-10-20T03:05:44.920Z,40.50
2023-10-20T03:08:12.481Z,40.65
2023-10-20T03:10:39.653Z,44.65
2023-10-20T03:13:06.575Z,32.97
2023-10-20T03:15:33.825Z,45.58
2023-10-20T03:18:00.970Z,44.47
2023-10-20T03:20:31.541Z,42.65
2023-10-20T03:22:58.600Z,40.30
2023-10-20T03:25:25.500Z,40.03
2023-10-20T03:27:52.172Z,39.05
2023-10-20T03:30:19.345Z,30.27
2023-10-20T03:32:51.206Z,37.00
2023-10-20T03:37:44.777Z,39.15
2023-10-20T03:40:14.793Z,42.95
2023-10-20T03:42:43.449Z,39.03
2023-10-20T03:45:11.688Z,42.67
2023-10-20T03:47:42.074Z,39.72
2023-10-20T03:50:16.813Z,43.70
2023-10-20T03:52:46.427Z,38.60
2023-10-20T03:55:16.578Z,37.40
2023-10-20T03:57:44.602Z,36.95
2023-10-20T04:00:30.058Z,26.38
2023-10-20T04:02:57.705Z,44.10
2023-10-20T04:05:25.397Z,38.53
2023-10-20T04:07:52.147Z,40.15
2023-10-20T04:10:22.076Z,39.53
2023-10-20T04:12:49.478Z,46.58
2023-10-20T04:15:16.554Z,40.53
2023-10-20T04:17:52.835Z,37.10
2023-10-20T04:20:21.306Z,42.20
2023-10-20T04:22:52.242Z,40.45
2023-10-20T04:25:20.523Z,37.90
2023-10-20T04:28:13.720Z,34.60
2023-10-20T04:30:58.741Z,36.35
2023-10-20T04:33:44.297Z,39.70
2023-10-20T04:36:29.629Z,38.90
2023-10-20T04:39:15.161Z,38.30
2023-10-20T04:42:00.732Z,43.38
2023-10-20T04:44:50.351Z,35.38
2023-10-20T04:47:17.333Z,43.45
2023-10-20T04:49:50.288Z,42.08
2023-10-20T04:52:29.460Z,39.53
2023-10-20T04:55:11.084Z,37.13
2023-10-20T04:57:56.476Z,43.53
2023-10-20T05:00:23.137Z,44.50
2023-10-20T05:02:52.057Z,42.88
2023-10-20T05:05:35.576Z,41.55
2023-10-20T05:08:14.379Z,40.35
2023-10-20T05:10:43.149Z,43.45
2023-10-20T05:13:11.073Z,37.45
2023-10-20T05:15:41.684Z,32.05
2023-10-20T05:18:18.071Z,39.65
2023-10-20T05:20:47.355Z,30.70
2023-10-20T05:23:17.033Z,29.90
2023-10-20T05:25:48.661Z,31.92
2023-10-20T05:28:17.137Z,42.95
2023-10-20T05:30:47.060Z,39.42
2023-10-20T05:33:14.771Z,36.90
2023-10-20T05:35:42.266Z,33.72
2023-10-20T05:38:09.656Z,33.28
2023-10-20T05:40:37.366Z,33.33
2023-10-20T05:43:06.413Z,29.70
2023-10-20T05:45:40.735Z,33.55
2023-10-20T05:48:08.639Z,33.50
2023-10-20T05:50:36.696Z,32.20
2023-10-20T05:53:03.888Z,29.98
2023-10-20T05:55:30.781Z,23.63
2023-10-20T05:57:57.442Z,23.60
2023-10-20T06:00:24.321Z,24.58
2023-10-20T06:02:51.719Z,25.63
2023-10-20T06:05:19.909Z,22.02
2023-10-20T06:07:46.657Z,26.38
2023-10-20T06:10:14.825Z,19.98
2023-10-20T06:12:41.521Z,23.73
2023-10-20T06:15:09.039Z,17.63
2023-10-20T06:17:37.425Z,22.67
2023-10-20T06:20:07.704Z,19.73
2023-10-20T06:22:34.542Z,18.60
2023-10-20T06:25:01.198Z,17.88
2023-10-20T06:27:28.002Z,18.83
2023-10-20T06:30:07.071Z,17.83
2023-10-20T06:32:44.054Z,17.80
2023-10-20T06:35:13.434Z,16.25
2023-10-20T06:37:57.408Z,21.95
2023-10-20T06:40:24.254Z,15.30
2023-10-20T06:42:50.947Z,11.82
2023-10-20T06:45:17.708Z,14.05
2023-10-20T06:47:44.769Z,16.60
2023-10-20T06:50:12.035Z,14.73
2023-10-20T06:52:39.043Z,17.77
2023-10-20T06:55:29.144Z,20.45
2023-10-20T06:57:53.212Z,15.27
2023-10-20T07:00:22.583Z,15.10
2023-10-20T07:02:49.776Z,14.32
2023-10-20T07:05:18.418Z,16.23
2023-10-20T07:07:45.248Z,16.63
2023-10-20T07:10:11.965Z,20.65
2023-10-20T07:12:39.314Z,17.95
2023-10-20T07:15:06.693Z,20.60
2023-10-20T07:17:34.084Z,19.92
2023-10-20T07:20:01.196Z,20.25
2023-10-20T07:22:30.016Z,23.27
2023-10-20T07:24:58.546Z,20.42
2023-10-20T07:27:26.451Z,20.15
2023-10-20T07:29:53.260Z,17.45
2023-10-20T07:32:20.610Z,17.20
2023-10-20T07:34:48.226Z,16.08
2023-10-20T07:37:17.709Z,22.98
2023-10-20T07:39:45.105Z,16.38
2023-10-20T07:42:12.013Z,17.88
2023-10-20T07:44:39.200Z,17.77
2023-10-20T07:47:07.306Z,17.98
2023-10-20T07:49:34.139Z,24.80
2023-10-20T07:52:03.227Z,14.45
2023-10-20T07:54:31.169Z,20.05
2023-10-20T07:56:59.753Z,14.75
2023-10-20T07:59:26.803Z,19.08
2023-10-20T08:01:53.671Z,20.33
2023-10-20T08:04:20.774Z,17.05
2023-10-20T08:06:49.316Z,13.57
2023-10-20T08:09:16.256Z,16.65
2023-10-20T08:11:43.471Z,15.90
2023-10-20T08:14:10.778Z,14.80
2023-10-20T08:16:37.874Z,14.02
2023-10-20T08:19:04.738Z,21.67
2023-10-20T08:21:31.825Z,12.60
2023-10-20T08:24:01.302Z,11.48
2023-10-20T08:26:28.099Z,15.75
2023-10-20T08:28:54.843Z,10.48
2023-10-20T08:31:23.242Z,11.15
2023-10-20T08:33:52.558Z,12.20
2023-10-20T08:36:22.757Z,13.10
2023-10-20T08:38:51.242Z,8.38
2023-10-20T08:41:22.727Z,8.48
2023-10-20T08:43:50.814Z,8.45
2023-10-20T08:46:19.293Z,8.50
2023-10-20T08:48:47.812Z,9.85
2023-10-20T08:51:17.646Z,9.95
2023-10-20T08:53:45.924Z,7.25
2023-10-20T08:56:14.305Z,8.15
2023-10-20T08:58:41.744Z,7.80
2023-10-20T09:01:09.042Z,5.05
2023-10-20T09:03:43.563Z,5.53
2023-10-20T09:06:15.268Z,7.47
2023-10-20T09:08:44.655Z,5.75
2023-10-20T09:11:13.259Z,5.00
2023-10-20T09:13:42.134Z,7.50
2023-10-20T09:16:11.485Z,4.25
2023-10-20T09:18:45.929Z,4.63
2023-10-20T09:21:14.769Z,4.70
2023-10-20T09:23:53.184Z,3.38
2023-10-20T09:26:20.013Z,4.97
2023-10-20T09:28:49.354Z,4.57
2023-10-20T09:31:20.198Z,4.47
2023-10-20T09:33:47.009Z,5.15
2023-10-20T09:36:14.541Z,4.53
2023-10-20T09:38:45.684Z,2.28
2023-10-20T09:41:15.878Z,1.80
2023-10-20T09:43:56.276Z,3.63
2023-10-20T09:46:42.882Z,3.30
2023-10-20T09:49:19.807Z,3.53
2023-10-20T09:51:48.587Z,3.70
2023-10-20T09:54:17.963Z,2.70
2023-10-20T09:56:46.633Z,2.03
2023-10-20T09:59:21.501Z,1.90
2023-10-20T10:01:49.082Z,3.47
2023-10-20T10:04:15.775Z,2.28
2023-10-20T10:06:46.834Z,1.67
2023-10-20T10:09:16.325Z,3.50
2023-10-20T10:11:44.436Z,2.35
2023-10-20T10:14:20.728Z,1.20
2023-10-20T10:17:00.011Z,2.20
2023-10-20T10:19:28.089Z,2.53
2023-10-20T10:21:59.801Z,2.67
2023-10-20T10:24:26.894Z,4.38
2023-10-20T10:27:08.012Z,2.22
2023-10-20T10:30:01.278Z,2.60
2023-10-20T10:32:32.815Z,2.05
2023-10-20T10:35:00.849Z,1.52
2023-10-20T10:37:30.865Z,1.63
2023-10-20T10:40:12.475Z,2.05
2023-10-20T10:42:44.917Z,1.80
2023-10-20T10:48:09.171Z,2.28
2023-10-20T10:50:44.107Z,1.60
2023-10-20T10:53:11.909Z,2.25
2023-10-20T10:55:38.951Z,1.65
2023-10-20T10:58:10.865Z,2.10
2023-10-20T11:00:39.038Z,2.05
2023-10-20T11:03:07.500Z,1.40
2023-10-20T11:05:35.002Z,1.40
2023-10-20T11:08:13.783Z,2.67
2023-10-20T11:10:47.245Z,1.30
2023-10-20T11:13:16.930Z,2.28
2023-10-20T11:15:44.396Z,2.08
2023-10-20T11:18:14.538Z,1.48
2023-10-20T11:20:43.587Z,1.75
2023-10-20T11:23:13.493Z,1.20
2023-10-20T11:25:44.233Z,1.50
2023-10-20T11:28:11.160Z,1.85
2023-10-20T11:30:40.004Z,1.27
2023-10-20T11:33:07.586Z,1.38
2023-10-20T11:35:34.602Z,1.23
2023-10-20T11:38:02.221Z,1.70
2023-10-20T11:40:29.149Z,1.27
2023-10-20T11:42:56.981Z,1.15
2023-10-20T11:45:24.170Z,1.20
2023-10-20T11:47:51.557Z,1.15
2023-10-20T11:50:21.774Z,2.88
2023-10-20T11:52:48.751Z,0.93
2023-10-20T11:55:15.677Z,0.88
2023-10-20T11:57:42.793Z,1.08
2023-10-20T12:00:15.000Z,1.98
2023-10-20T12:02:42.541Z,2.67
2023-10-20T12:05:10.690Z,1.25
2023-10-20T12:07:38.549Z,2.25
2023-10-20T12:10:06.729Z,0.88
2023-10-20T12:12:34.874Z,1.25
2023-10-20T12:15:01.893Z,1.13
2023-10-20T12:17:29.712Z,1.00
2023-10-20T12:19:56.621Z,1.40
2023-10-20T12:22:24.164Z,1.67
2023-10-20T12:24:51.469Z,1.30
2023-10-20T12:27:18.714Z,1.30
2023-10-20T12:29:45.452Z,1.10
2023-10-20T12:32:13.871Z,0.95
2023-10-20T12:34:41.062Z,2.08
2023-10-20T12:37:07.783Z,1.17
2023-10-20T12:39:34.682Z,0.95
2023-10-20T12:42:04.450Z,3.30
2023-10-20T12:44:31.569Z,1.55
2023-10-20T12:46:58.433Z,1.10
2023-10-20T12:49:25.265Z,2.38
2023-10-20T12:51:52.193Z,3.90
2023-10-20T12:54:18.969Z,1.88
2023-10-20T12:56:45.743Z,1.27
2023-10-20T12:59:12.473Z,0.55
2023-10-20T13:01:39.276Z,0.85
2023-10-20T13:04:06.552Z,1.00
2023-10-20T13:06:42.563Z,1.23
2023-10-20T13:09:18.475Z,1.13
2023-10-20T13:11:45.211Z,1.08
2023-10-20T13:14:11.941Z,1.30
2023-10-20T13:16:40.342Z,1.05
2023-10-20T13:19:07.562Z,0.68
2023-10-20T13:21:34.320Z,1.77
2023-10-20T13:24:01.008Z,1.30
2023-10-20T13:26:27.829Z,2.60
2023-10-20T13:28:54.606Z,1.48
2023-10-20T13:31:24.037Z,2.63
2023-10-20T13:33:50.987Z,3.38
2023-10-20T13:36:19.552Z,2.00
2023-10-20T13:38:46.599Z,2.63
2023-10-20T13:41:13.346Z,2.20
2023-10-20T13:43:40.266Z,2.33
2023-10-20T13:46:06.964Z,1.10
2023-10-20T13:48:33.783Z,1.85
2023-10-20T13:51:00.877Z,0.88
2023-10-20T13:53:27.694Z,1.30
2023-10-20T13:55:54.493Z,1.52
2023-10-20T13:58:22.450Z,1.35
2023-10-20T14:00:50.808Z,1.48
2023-10-20T14:03:17.652Z,1.20
2023-10-20T14:05:53.872Z,1.88
2023-10-20T14:08:20.758Z,1.10
2023-10-20T14:10:49.539Z,2.17
2023-10-20T14:13:17.154Z,2.15
2023-10-20T14:15:44.986Z,0.82
2023-10-20T14:18:12.788Z,1.10
2023-10-20T14:20:40.389Z,0.90
2023-10-20T14:23:08.523Z,1.10
2023-10-20T14:25:35.308Z,0.75
2023-10-20T14:28:01.997Z,0.95
2023-10-20T14:30:28.713Z,2.85
2023-10-20T14:32:55.596Z,0.70
2023-10-20T14:35:23.422Z,1.40
2023-10-20T14:37:50.618Z,0.80
2023-10-20T14:40:17.353Z,0.57
2023-10-20T14:42:44.666Z,0.40
2023-10-20T14:45:11.387Z,0.40
2023-10-20T14:47:38.182Z,1.63
2023-10-20T14:50:05.388Z,3.00
2023-10-20T14:52:32.139Z,1.90
2023-10-20T14:54:59.151Z,4.50
2023-10-20T14:57:25.886Z,4.55
2023-10-20T14:59:52.641Z,1.73
2023-10-20T15:02:19.675Z,2.00
2023-10-20T15:04:46.988Z,2.40
2023-10-20T15:07:14.013Z,1.02
2023-10-20T15:09:40.684Z,0.70
2023-10-20T15:12:08.470Z,1.90
2023-10-20T15:14:35.693Z,1.65
2023-10-20T15:17:02.556Z,1.58
2023-10-20T15:19:30.405Z,1.38
2023-10-20T15:21:57.461Z,1.20
2023-10-20T15:24:24.183Z,1.20
2023-10-20T15:26:51.659Z,4.93
2023-10-20T15:29:18.911Z,1.30
2023-10-20T15:31:45.813Z,3.50
2023-10-20T15:34:12.687Z,2.58
2023-10-20T15:36:50.536Z,5.00
2023-10-20T15:39:26.480Z,1.45
2023-10-20T15:44:26.029Z,5.32
2023-10-20T15:46:52.796Z,3.70
2023-10-20T15:49:19.450Z,2.85
2023-10-20T15:51:46.433Z,2.85
2023-10-20T15:54:19.871Z,2.88
2023-10-20T15:56:46.677Z,1.70
2023-10-20T15:59:13.995Z,2.00
2023-10-20T16:01:40.736Z,1.85
2023-10-20T16:04:07.576Z,2.20
2023-10-20T16:06:34.309Z,2.50
2023-10-20T16:09:01.789Z,4.30
2023-10-20T16:11:29.074Z,3.17
2023-10-20T16:13:56.111Z,3.75
2023-10-20T16:16:24.590Z,3.00
2023-10-20T16:18:51.947Z,3.28
2023-10-20T16:21:19.856Z,4.40
2023-10-20T16:23:46.725Z,3.35
2023-10-20T16:26:13.838Z,4.72
2023-10-20T16:28:40.614Z,3.85
2023-10-20T16:31:07.394Z,6.30
2023-10-20T16:33:35.798Z,3.83
2023-10-20T16:36:03.194Z,3.38
2023-10-20T16:38:30.373Z,4.30
2023-10-20T16:40:58.636Z,4.50
2023-10-20T16:43:25.830Z,3.58
2023-10-20T16:45:53.433Z,4.45
2023-10-20T16:48:22.356Z,4.13
2023-10-20T16:51:01.397Z,3.38
2023-10-20T16:53:28.323Z,4.05
2023-10-20T16:55:59.564Z,3.88
2023-10-20T16:58:29.908Z,3.53
2023-10-20T17:01:04.199Z,4.68
2023-10-20T17:03:31.177Z,6.45
2023-10-20T17:05:58.324Z,5.00
2023-10-20T17:08:26.547Z,4.93
2023-10-20T17:10:55.117Z,6.70
2023-10-20T17:13:22.535Z,4.55
2023-10-20T17:15:49.369Z,5.63
2023-10-20T17:18:16.192Z,8.43
2023-10-20T17:20:43.442Z,6.88
2023-10-20T17:23:10.709Z,9.55
2023-10-20T17:25:42.519Z,8.90
2023-10-20T17:28:09.283Z,7.40
2023-10-20T17:30:38.968Z,9.40
2023-10-20T17:33:06.369Z,9.55
2023-10-20T17:35:34.170Z,12.30
2023-10-20T17:38:01.922Z,13.57
2023-10-20T17:40:29.031Z,16.63
2023-10-20T17:42:55.750Z,15.35
2023-10-20T17:45:27.424Z,14.88
2023-10-20T17:50:20.986Z,17.13
2023-10-20T17:52:47.714Z,23.15
2023-10-20T17:55:14.413Z,14.98
2023-10-20T17:57:41.108Z,19.58
2023-10-20T18:00:12.982Z,19.75
2023-10-20T18:02:39.914Z,21.35
2023-10-20T18:05:06.852Z,23.42
2023-10-20T18:07:33.526Z,20.30
2023-10-20T18:10:00.214Z,27.33
2023-10-20T18:12:26.909Z,24.67
2023-10-20T18:14:53.664Z,25.30
2023-10-20T18:17:20.526Z,29.38
2023-10-20T18:19:47.237Z,26.67
2023-10-20T18:22:13.922Z,23.80
2023-10-20T18:24:40.661Z,36.38
2023-10-20T18:27:07.361Z,25.05
2023-10-20T18:29:36.024Z,31.63
2023-10-20T18:32:03.915Z,26.38
2023-10-20T18:34:31.023Z,29.73
2023-10-20T18:36:58.128Z,27.33
2023-10-20T18:39:25.295Z,30.10
2023-10-20T18:41:53.678Z,33.47
2023-10-20T18:44:20.573Z,26.10
2023-10-20T18:46:47.340Z,28.08
2023-10-20T18:49:14.033Z,30.27
2023-10-20T18:51:42.104Z,28.13
2023-10-20T18:54:10.959Z,33.33
2023-10-20T18:56:38.273Z,27.75
2023-10-20T18:59:06.196Z,39.03
2023-10-20T19:01:33.158Z,26.48
2023-10-20T19:04:01.138Z,27.98
2023-10-20T19:06:28.141Z,29.10
2023-10-20T19:08:55.042Z,29.63
2023-10-20T19:11:22.042Z,29.85
2023-10-20T19:13:48.768Z,35.42
2023-10-20T19:16:15.552Z,24.95
2023-10-20T19:18:42.511Z,27.67
2023-10-20T19:21:11.944Z,28.27
2023-10-20T19:23:39.263Z,30.02
2023-10-20T19:26:09.016Z,27.45
2023-10-20T19:28:35.833Z,25.88
2023-10-20T19:31:04.274Z,22.33
2023-10-20T19:33:32.620Z,21.15
2023-10-20T19:36:00.346Z,19.08
2023-10-20T19:38:27.060Z,23.17
2023-10-20T19:40:54.194Z,21.63
2023-10-20T19:43:21.536Z,21.50
2023-10-20T19:45:48.279Z,22.50
2023-10-20T19:48:15.228Z,20.67
2023-10-20T19:50:42.280Z,18.52
2023-10-20T19:53:09.379Z,23.60
2023-10-20T19:55:36.110Z,17.25
2023-10-20T19:58:02.936Z,20.08
2023-10-20T20:00:31.231Z,19.30
2023-10-20T20:02:58.604Z,18.80
2023-10-20T20:05:28.730Z,16.63
2023-10-20T20:07:55.901Z,15.95
2023-10-20T20:10:23.060Z,18.17
2023-10-20T20:12:49.851Z,16.42
2023-10-20T20:15:16.672Z,19.33
2023-10-20T20:17:43.531Z,25.02
2023-10-20T20:20:10.803Z,18.38
2023-10-20T20:22:37.554Z,16.35
2023-10-20T20:25:04.597Z,18.65
2023-10-20T20:27:32.420Z,19.25
2023-10-20T20:29:59.203Z,18.77
2023-10-20T20:32:25.977Z,17.88
2023-10-20T20:34:52.662Z,16.88
2023-10-20T20:37:20.211Z,19.13
2023-10-20T20:39:47.030Z,19.30
2023-10-20T20:42:13.857Z,20.35
2023-10-20T20:44:40.738Z,17.73
2023-10-20T20:47:07.494Z,18.83
2023-10-20T20:49:35.615Z,18.63
2023-10-20T20:52:02.584Z,17.23
2023-10-20T20:54:29.491Z,18.00
2023-10-20T20:56:56.345Z,15.45
2023-10-20T20:59:23.155Z,17.33
2023-10-20T21:01:49.909Z,16.75
2023-10-20T21:04:16.824Z,17.65
2023-10-20T21:06:43.695Z,19.83
2023-10-20T21:09:11.464Z,23.55
2023-10-20T21:11:38.247Z,15.50
2023-10-20T21:14:05.080Z,24.65
2023-10-20T21:16:32.117Z,16.70
2023-10-20T21:19:01.733Z,19.50
2023-10-20T21:21:28.712Z,16.58
2023-10-20T21:23:55.512Z,19.20
2023-10-20T21:26:22.812Z,18.55
2023-10-20T21:28:49.924Z,21.35
2023-10-20T21:31:16.724Z,19.08
2023-10-20T21:33:43.676Z,20.67
2023-10-20T21:36:15.937Z,20.33
2023-10-20T21:38:42.841Z,19.15
2023-10-20T21:41:09.982Z,23.65
2023-10-20T21:43:36.693Z,20.60
2023-10-20T21:46:04.809Z,22.50
2023-10-20T21:48:31.774Z,23.48
2023-10-20T21:51:03.233Z,26.08
2023-10-20T21:53:32.409Z,21.88
2023-10-20T21:58:28.617Z,19.30
2023-10-20T22:00:55.698Z,22.50
2023-10-20T22:03:23.479Z,20.02
2023-10-20T22:05:53.727Z,24.27
2023-10-20T22:08:21.454Z,15.77
2023-10-20T22:10:48.442Z,25.15
2023-10-20T22:13:15.230Z,21.27
2023-10-20T22:15:41.939Z,19.38
2023-10-20T22:18:09.174Z,18.98
2023-10-20T22:20:36.164Z,18.45
2023-10-20T22:23:03.013Z,20.85
2023-10-20T22:25:29.647Z,16.77
2023-10-20T22:27:57.308Z,16.83
2023-10-20T22:30:24.307Z,14.75
2023-10-20T22:32:51.034Z,14.82
2023-10-20T22:35:18.048Z,18.30
2023-10-20T22:37:44.873Z,14.25
2023-10-20T22:40:11.782Z,16.30
2023-10-20T22:42:38.508Z,16.08
2023-10-20T22:45:06.075Z,21.67
2023-10-20T22:47:33.460Z,17.30
2023-10-20T22:50:00.384Z,17.75
2023-10-20T22:52:27.465Z,12.88
2023-10-20T22:54:54.628Z,21.63
2023-10-20T22:57:21.361Z,15.18
2023-10-20T22:59:48.073Z,17.52
2023-10-20T23:02:15.071Z,17.85
2023-10-20T23:04:41.836Z,16.00
2023-10-20T23:07:08.656Z,12.07
2023-10-20T23:09:35.953Z,15.73
2023-10-20T23:12:05.776Z,15.45
2023-10-20T23:14:32.609Z,14.68
2023-10-20T23:17:00.152Z,14.57
2023-10-20T23:19:26.912Z,15.07
2023-10-20T23:21:53.597Z,19.65
2023-10-20T23:24:20.375Z,21.08
2023-10-20T23:26:48.180Z,18.75
2023-10-20T23:29:14.886Z,13.32
2023-10-20T23:31:41.535Z,15.38
2023-10-20T23:34:08.282Z,10.15
2023-10-20T23:36:35.033Z,19.92
2023-10-20T23:39:01.835Z,16.08
2023-10-20T23:41:28.559Z,14.18
2023-10-20T23:43:55.314Z,15.85
2023-10-20T23:46:22.082Z,13.15
2023-10-20T23:48:48.842Z,12.93
2023-10-20T23:51:15.610Z,13.35
2023-10-20T23:53:42.511Z,13.65
2023-10-20T23:56:09.234Z,9.52
2023-10-20T23:58:35.876Z,8.50
